Meteo Giornale » Osservazioni meteo Messico » Mexico City-Licenci

ore: 20:57 - Osservazioni Meteo Mexico City-Licenci
Lat. 19° 26' N Lon. 99° 6' W Alt. 2238 metri s.l.m.

coperto America/Mexico_City

16 °C

Coperto

Temp. 24 Ore

13 °C

26 °C

Sud/Sud-Ovest

14.8 Km/h

Dew point 14 °C

Umidità 87 %

Visibilità  11 Km

Il sole sorge alle ore 07:25

Il sole tramonta alle ore 19:28

Data e Ora Cielo e Fenomeni T °C DP °C Um. % Pres. hPa Vis. km Vento km/h
Oggi h: 20:57 coperto Coperto 16 14 87 1024 11 S/SO 14.8
Oggi h: 20:45 coperto_pioggia Pioggia Debole 16 14 87 1023 11 S 11.1
Oggi h: 20:33 coperto_pioggia Pioggia Debole 16 14 87 1023 11 S/SE 11.1
Oggi h: 20:01 coperto_pioggia Pioggia Debole 18 13 72 1023 13 S 9.3
Oggi h: 19:46 coperto Coperto 18 12 67 1022 13 S/SE 18.5
Oggi h: 19:22 coperto_pioggia Pioggia nelle Vicinanze 18 12 67 1022 11 E/SE 18.5
Oggi h: 18:46 coperto_pioggia Pioggia nelle Vicinanze 20 13 64 1022 11 S/SE 18.5
Oggi h: 18:17 nuvoloso_temporali Temporale con Pioggia 21 14 64 1021 11 E/SE 18.5
Oggi h: 17:45 coperto_pioggia Pioggia Debole 20 13 64 1020 13 SE 16.7
Oggi h: 17:20 coperto_pioggia Pioggia Debole 21 11 52 1020 13 SE 22.2
Oggi h: 17:09 coperto_pioggia Pioggia nelle Vicinanze 23 11 46 1020 14 E/SE 18.5
Oggi h: 16:45 coperto_pioggia Pioggia nelle Vicinanze 25 8 33 1020 14 N/NE 14.8
Oggi h: 15:45 coperto_pioggia Pioggia nelle Vicinanze 26 7 29 1021 14 N/NE 14.8
Oggi h: 14:45 molto_nuvoloso Molto Nuvoloso 25 6 29 1022 13 NO 13
Oggi h: 13:45 nuvoloso Nuvoloso 24 7 33 1023 13 N/NE 13
Oggi h: 12:47 nuvoloso Nuvoloso 24 10 41 1025 13 N 5.5
Oggi h: 12:33 nuvoloso Nuvoloso 23 10 43 1025 13 N/NO 7.4
Oggi h: 11:45 nuvoloso Nuvoloso 21 10 49 1026 11 E/NE 9.3
Oggi h: 10:45 poco_nuvoloso Poco Nuvoloso 20 12 59 1026 10 N 5.5
Oggi h: 10:09 poco_nuvoloso Poco Nuvoloso 19 12 63 1026 10 N 5.5
Oggi h: 09:45 poco_nuvoloso Poco Nuvoloso 17 13 77 1026 10 SO 7.4
Oggi h: 08:45 poco_nuvoloso Poco Nuvoloso 15 12 82 1025 10 N 0
Oggi h: 07:45 nuvoloso Nuvoloso 13 11 87 1025 10 E/NE 7.4
Oggi h: 06:54 molto_nuvoloso Molto Nuvoloso 14 12 87 1025 11 E/NE 7.4
Oggi h: 05:44 nuvoloso Nuvoloso 14 12 87 1025 10 NE 7.4
Oggi h: 04:43 nuvoloso Nuvoloso 14 11 82 1024 13 NE 9.3
Oggi h: 03:43 nuvoloso Nuvoloso 15 11 76 1025 13 N 0
Oggi h: 02:41 sereno Sereno 15 12 82 1025 13 N 0
Oggi h: 01:44 sereno Sereno 15 12 82 1026 13 N 0
Oggi h: 00:51 poco_nuvoloso Poco Nuvoloso 15 12 82 1026 13 E/NE 7.4
Ieri h: 23:49 poco_nuvoloso Poco Nuvoloso 16 12 77 1027 13 E/NE 7.4
Ieri h: 22:41 nuvoloso Nuvoloso 17 11 67 1027 13 NO 7.4
Ieri h: 21:47 nuvoloso Nuvoloso 18 11 63 1026 13 NO 7.4